This is the latest recevied weather packets stored in our database for station/object IW1EYZ-3. If no packets are shown the sender has not sent any weather packets the latest 10 day(s).
| Time | Temp. | Humidity | Pressure | Rain* | Wind** | Luminosity | Snow |
|---|---|---|---|---|---|---|---|
| 1777108096 | 20° C | 50% | 1019.5 hPa | - | - | - | - |
| 1777106896 | 18.89° C | 54% | 1019.5 hPa | - | - | - | - |
| 1777105696 | 17.78° C | 58% | 1019.5 hPa | - | - | - | - |
| 1777104497 | 16.67° C | 64% | 1019.6 hPa | - | - | - | - |
| 1777103295 | 16.11° C | 63% | 1019.5 hPa | - | - | - | - |
| 1777102095 | 16.11° C | 64% | 1019.5 hPa | - | - | - | - |
| 1777100895 | 16.11° C | 63% | 1019.4 hPa | - | - | - | - |
| 1777099694 | 15.56° C | 64% | 1019.4 hPa | - | - | - | - |
| 1777098494 | 15.56° C | 64% | 1019.4 hPa | - | - | - | - |
| 1777097293 | 15° C | 64% | 1019.4 hPa | - | - | - | - |
| 1777096093 | 14.44° C | 65% | 1019.2 hPa | - | - | - | - |
| 1777094893 | 14.44° C | 64% | 1019.1 hPa | - | - | - | - |
| 1777093692 | 13.89° C | 64% | 1018.8 hPa | - | - | - | - |
| 1777092492 | 13.89° C | 65% | 1018.7 hPa | - | - | - | - |
| 1777091292 | 13.89° C | 64% | 1018.6 hPa | - | - | - | - |
| 1777090091 | 13.89° C | 67% | 1018.6 hPa | - | - | - | - |
| 1777088891 | 13.89° C | 69% | 1018.5 hPa | - | - | - | - |
| 1777087691 | 13.89° C | 71% | 1018.5 hPa | - | - | - | - |
| 1777086491 | 13.89° C | 72% | 1018.5 hPa | - | - | - | - |
| 1777085290 | 13.89° C | 72% | 1018.5 hPa | - | - | - | - |
| 1777084090 | 13.89° C | 71% | 1018.5 hPa | - | - | - | - |
| 1777082890 | 14.44° C | 71% | 1018.6 hPa | - | - | - | - |
| 1777081689 | 13.89° C | 72% | 1018.4 hPa | - | - | - | - |
| 1777080489 | 14.44° C | 71% | 1018.5 hPa | - | - | - | - |
| 1777079289 | 14.44° C | 72% | 1018.7 hPa | - | - | - | - |
* Rain since midnight (hover to see other rain measurements)
** Current wind speed in m/s (hover to see current wind gust speed)